createdAt,value
2017-05-11T00:01:15.365Z,22.07
2017-05-11T00:02:15.189Z,22.14
2017-05-11T00:03:15.097Z,22.08
2017-05-11T00:04:15.027Z,22.15
2017-05-11T00:05:14.962Z,22.07
2017-05-11T00:06:15.188Z,22.07
2017-05-11T00:07:14.843Z,22.11
2017-05-11T00:08:14.774Z,22.04
2017-05-11T00:09:14.715Z,22.11
2017-05-11T00:10:14.649Z,22.13
2017-05-11T00:11:14.586Z,22.15
2017-05-11T00:12:14.534Z,22.06
2017-05-11T00:13:14.465Z,22.08
2017-05-11T00:14:14.400Z,22.08
2017-05-11T00:15:14.029Z,22.06
2017-05-11T00:16:14.269Z,22.13
2017-05-11T00:17:14.207Z,22.1
2017-05-11T00:18:14.152Z,22.14
2017-05-11T00:19:14.083Z,22.11
2017-05-11T00:20:14.017Z,22.06
2017-05-11T00:21:13.652Z,22.14
2017-05-11T00:22:13.891Z,22.08
2017-05-11T00:23:13.829Z,22.11
2017-05-11T00:24:13.764Z,22.1
2017-05-11T00:25:13.398Z,22.13
2017-05-11T00:26:13.637Z,22.13
2017-05-11T00:27:13.573Z,22.15
2017-05-11T00:28:13.517Z,22.07
2017-05-11T00:29:13.450Z,22.14
2017-05-11T00:30:13.383Z,22.14
2017-05-11T00:31:13.327Z,22.11
2017-05-11T00:32:12.959Z,22.11
2017-05-11T00:33:12.891Z,22.14
2017-05-11T00:34:13.136Z,22.14
2017-05-11T00:35:13.071Z,22.06
2017-05-11T00:36:12.702Z,22.17
2017-05-11T00:37:12.945Z,22.15
2017-05-11T00:38:12.881Z,22.17
2017-05-11T00:39:12.820Z,22.15
2017-05-11T00:40:12.756Z,22.13
2017-05-11T00:41:12.690Z,22.1
2017-05-11T00:42:12.878Z,22.1
2017-05-11T00:43:12.300Z,22.13
2017-05-11T00:44:12.502Z,22.13
2017-05-11T00:45:12.438Z,22.14
2017-05-11T00:46:12.374Z,22.14
2017-05-11T00:47:12.260Z,22.18
2017-05-11T00:48:12.250Z,22.14
2017-05-11T00:49:12.191Z,22.14
2017-05-11T00:50:12.121Z,22.22
2017-05-11T00:51:12.057Z,22.2
2017-05-11T00:52:11.995Z,22.11
2017-05-11T00:53:11.931Z,22.08
2017-05-11T00:54:11.866Z,22.17
2017-05-11T00:55:11.804Z,22.17
2017-05-11T00:56:11.439Z,22.17
2017-05-11T00:57:11.682Z,22.22
2017-05-11T00:58:11.621Z,22.17
2017-05-11T00:59:11.554Z,22.14
2017-05-11T01:00:11.588Z,22.1
2017-05-11T01:01:11.430Z,22.14
2017-05-11T01:02:11.361Z,22.1
2017-05-11T01:03:11.302Z,22.2
2017-05-11T01:04:11.239Z,22.13
2017-05-11T01:05:11.272Z,22.1
2017-05-11T01:06:11.110Z,22.17
2017-05-11T01:07:11.045Z,22.14
2017-05-11T01:08:10.680Z,22.2
2017-05-11T01:09:10.621Z,22.14
2017-05-11T01:10:10.854Z,22.17
2017-05-11T01:11:10.806Z,22.08
2017-05-11T01:12:10.732Z,22.14
2017-05-11T01:13:10.670Z,22.15
2017-05-11T01:14:10.599Z,22.22
2017-05-11T01:15:10.237Z,22.15
2017-05-11T01:16:10.478Z,22.14
2017-05-11T01:17:10.413Z,22.14
2017-05-11T01:18:10.348Z,22.13
2017-05-11T01:19:10.291Z,22.14
2017-05-11T01:20:10.225Z,22.22
2017-05-11T01:21:10.167Z,22.18
2017-05-11T01:22:10.097Z,22.22
2017-05-11T01:23:10.035Z,22.17
2017-05-11T01:24:09.977Z,22.22
2017-05-11T01:25:09.908Z,22.22
2017-05-11T01:26:09.845Z,22.15
2017-05-11T01:27:09.786Z,22.14
2017-05-11T01:28:09.424Z,22.1
2017-05-11T01:29:09.657Z,22.18
2017-05-11T01:30:09.294Z,22.14
2017-05-11T01:31:09.531Z,22.15
2017-05-11T01:32:09.472Z,22.17
2017-05-11T01:33:09.415Z,22.22
2017-05-11T01:34:09.344Z,22.15
2017-05-11T01:35:09.280Z,22.17
2017-05-11T01:36:09.215Z,22.23
2017-05-11T01:37:09.152Z,22.22
2017-05-11T01:38:09.090Z,22.17
2017-05-11T01:39:09.030Z,22.15
2017-05-11T01:40:08.962Z,22.17
2017-05-11T01:41:08.900Z,22.22
2017-05-11T01:42:08.844Z,22.11
2017-05-11T01:43:08.774Z,22.14
2017-05-11T01:44:08.714Z,22.15
2017-05-11T01:45:08.645Z,22.2
2017-05-11T01:46:08.788Z,22.15
2017-05-11T01:47:08.216Z,22.15
2017-05-11T01:48:08.458Z,22.17
2017-05-11T01:49:08.394Z,22.17
2017-05-11T01:50:08.334Z,22.17
2017-05-11T01:51:08.267Z,22.17
2017-05-11T01:52:08.204Z,22.15
2017-05-11T01:53:08.142Z,22.17
2017-05-11T01:54:07.783Z,22.15
2017-05-11T01:55:07.708Z,22.17
2017-05-11T01:56:07.648Z,22.2
2017-05-11T01:57:07.886Z,22.14
2017-05-11T01:58:07.824Z,22.14
2017-05-11T01:59:07.758Z,22.22
2017-05-11T02:00:07.404Z,22.18
2017-05-11T02:01:07.635Z,22.17
2017-05-11T02:02:07.572Z,22.18
2017-05-11T02:03:07.507Z,22.11
2017-05-11T02:04:07.446Z,22.11
2017-05-11T02:05:07.379Z,22.14
2017-05-11T02:06:07.318Z,22.11
2017-05-11T02:07:07.256Z,22.25
2017-05-11T02:08:07.191Z,22.18
2017-05-11T02:09:07.142Z,22.14
2017-05-11T02:10:07.063Z,22.25
2017-05-11T02:11:07.018Z,22.17
2017-05-11T02:12:06.939Z,22.2
2017-05-11T02:13:06.873Z,22.17
2017-05-11T02:14:06.819Z,22.13
2017-05-11T02:15:06.755Z,22.13
2017-05-11T02:16:06.685Z,22.14
2017-05-11T02:17:06.627Z,22.2
2017-05-11T02:18:06.568Z,22.18
2017-05-11T02:19:06.497Z,22.18
2017-05-11T02:20:06.438Z,22.15
2017-05-11T02:21:06.369Z,22.15
2017-05-11T02:22:06.306Z,22.18
2017-05-11T02:23:06.248Z,22.18
2017-05-11T02:24:06.183Z,22.14
2017-05-11T02:25:06.114Z,22.13
2017-05-11T02:26:06.053Z,22.2
2017-05-11T02:27:05.688Z,22.18
2017-05-11T02:28:05.928Z,22.17
2017-05-11T02:29:05.868Z,22.14
2017-05-11T02:30:20.438Z,22.14
2017-05-11T02:31:05.740Z,22.2
2017-05-11T02:32:05.721Z,22.18
2017-05-11T02:33:05.612Z,22.17
2017-05-11T02:34:05.547Z,22.11
2017-05-11T02:35:05.483Z,22.13
2017-05-11T02:36:05.419Z,22.17
2017-05-11T02:37:05.359Z,22.13
2017-05-11T02:38:05.294Z,22.2
2017-05-11T02:39:05.232Z,22.1
2017-05-11T02:40:04.864Z,22.18
2017-05-11T02:41:05.111Z,22.14
2017-05-11T02:42:04.740Z,22.15
2017-05-11T02:43:04.980Z,22.18
2017-05-11T02:44:04.914Z,22.23
2017-05-11T02:45:04.853Z,22.18
2017-05-11T02:46:04.489Z,22.18
2017-05-11T02:47:04.729Z,22.13
2017-05-11T02:48:04.665Z,22.13
2017-05-11T02:49:04.297Z,22.15
2017-05-11T02:50:04.538Z,22.14
2017-05-11T02:51:04.475Z,22.25
2017-05-11T02:52:04.409Z,22.18
2017-05-11T02:53:04.355Z,22.18
2017-05-11T02:54:04.281Z,22.17
2017-05-11T02:55:04.228Z,22.26
2017-05-11T02:56:04.157Z,22.14
2017-05-11T02:57:04.102Z,22.17
2017-05-11T02:58:04.036Z,22.18
2017-05-11T02:59:03.966Z,22.14
2017-05-11T03:00:03.909Z,22.18
2017-05-11T03:01:03.871Z,22.17
2017-05-11T03:02:03.777Z,22.13
2017-05-11T03:03:03.419Z,22.11
2017-05-11T03:04:03.649Z,22.17
2017-05-11T03:05:03.589Z,22.14
2017-05-11T03:06:03.524Z,22.18
2017-05-11T03:07:03.460Z,22.15
2017-05-11T03:08:03.402Z,22.14
2017-05-11T03:09:03.333Z,22.22
2017-05-11T03:10:03.273Z,22.11
2017-05-11T03:11:03.208Z,22.18
2017-05-11T03:12:03.151Z,22.17
2017-05-11T03:13:03.084Z,22.15
2017-05-11T03:14:03.018Z,22.13
2017-05-11T03:15:02.663Z,22.17
2017-05-11T03:16:02.895Z,22.13
2017-05-11T03:17:02.833Z,22.14
2017-05-11T03:18:02.466Z,22.18
2017-05-11T03:19:02.400Z,22.22
2017-05-11T03:20:02.644Z,22.2
2017-05-11T03:21:02.575Z,22.14
2017-05-11T03:22:02.221Z,22.14
2017-05-11T03:23:02.449Z,22.18
2017-05-11T03:24:01.786Z,22.18
2017-05-11T03:25:02.326Z,22.13
2017-05-11T03:26:02.258Z,22.18
2017-05-11T03:27:02.196Z,22.2
2017-05-11T03:28:01.837Z,22.18
2017-05-11T03:29:02.071Z,22.18
2017-05-11T03:30:01.860Z,22.15
2017-05-11T03:31:01.947Z,22.22
2017-05-11T03:32:01.882Z,22.17
2017-05-11T03:33:01.818Z,22.18
2017-05-11T03:34:01.458Z,22.15
2017-05-11T03:35:01.436Z,22.15
2017-05-11T03:36:01.631Z,22.2
2017-05-11T03:37:01.565Z,22.14
2017-05-11T03:38:01.505Z,22.18
2017-05-11T03:39:01.439Z,22.17
2017-05-11T03:40:01.403Z,22.2
2017-05-11T03:41:01.311Z,22.14
2017-05-11T03:42:01.249Z,22.2
2017-05-11T03:43:01.186Z,22.18
2017-05-11T03:44:01.123Z,22.15
2017-05-11T03:45:01.064Z,22.18
2017-05-11T03:46:00.698Z,22.17
2017-05-11T03:47:00.938Z,22.2
2017-05-11T03:48:00.870Z,22.22
2017-05-11T03:49:00.512Z,22.2
2017-05-11T03:50:00.746Z,22.15
2017-05-11T03:51:00.681Z,22.15
2017-05-11T03:52:00.313Z,22.18
2017-05-11T03:53:00.554Z,22.14
2017-05-11T03:54:00.495Z,22.18
2017-05-11T03:55:00.430Z,22.2
2017-05-11T03:56:00.364Z,22.17
2017-05-11T03:57:00.303Z,22.18
2017-05-11T03:58:00.237Z,22.22
2017-05-11T03:59:00.173Z,22.2
2017-05-11T04:00:00.121Z,22.22
2017-05-11T04:01:00.053Z,22.2
2017-05-11T04:01:59.985Z,22.2
2017-05-11T04:02:59.923Z,22.22
2017-05-11T04:03:59.858Z,22.15
2017-05-11T04:04:59.801Z,22.18
2017-05-11T04:05:59.731Z,22.2
2017-05-11T04:06:59.672Z,22.14
2017-05-11T04:07:59.610Z,22.18
2017-05-11T04:08:59.542Z,22.18
2017-05-11T04:09:59.486Z,22.17
2017-05-11T04:10:59.115Z,22.11
2017-05-11T04:11:59.356Z,22.11
2017-05-11T04:12:59.298Z,22.15
2017-05-11T04:13:59.227Z,22.08
2017-05-11T04:14:59.160Z,22.17
2017-05-11T04:15:59.102Z,22.18
2017-05-11T04:16:59.036Z,22.1
2017-05-11T04:17:58.972Z,22.08
2017-05-11T04:18:58.910Z,22.04
2017-05-11T04:19:58.846Z,22.13
2017-05-11T04:20:58.779Z,22.13
2017-05-11T04:21:58.723Z,22.11
2017-05-11T04:22:58.657Z,22.08
2017-05-11T04:23:58.596Z,22.07
2017-05-11T04:24:58.529Z,22.1
2017-05-11T04:25:58.466Z,22.1
2017-05-11T04:26:58.402Z,22
2017-05-11T04:27:58.349Z,21.98
2017-05-11T04:28:58.275Z,22.02
2017-05-11T04:29:58.222Z,22.02
2017-05-11T04:30:58.153Z,21.92
2017-05-11T04:31:58.089Z,22.1
2017-05-11T04:32:58.028Z,21.99
2017-05-11T04:33:57.959Z,22.04
2017-05-11T04:34:57.896Z,21.99
2017-05-11T04:35:57.831Z,21.95
2017-05-11T04:36:57.775Z,22.02
2017-05-11T04:37:57.708Z,22.04
2017-05-11T04:38:57.643Z,22.06
2017-05-11T04:39:57.278Z,21.99
2017-05-11T04:40:57.512Z,22.06
2017-05-11T04:41:57.450Z,21.99
2017-05-11T04:42:57.398Z,21.99
2017-05-11T04:43:57.325Z,21.99
2017-05-11T04:44:57.265Z,22.07
2017-05-11T04:45:57.202Z,21.92
2017-05-11T04:46:57.139Z,21.95
2017-05-11T04:47:57.074Z,22
2017-05-11T04:48:57.011Z,21.96
2017-05-11T04:49:56.950Z,21.98
2017-05-11T04:50:56.882Z,21.98
2017-05-11T04:51:56.822Z,21.93
2017-05-11T04:52:56.756Z,21.95
2017-05-11T04:53:56.695Z,21.98
2017-05-11T04:54:56.632Z,21.96
2017-05-11T04:55:56.267Z,21.93
2017-05-11T04:56:56.502Z,21.99
2017-05-11T04:57:56.439Z,21.92
2017-05-11T04:58:56.377Z,21.99
2017-05-11T04:59:56.313Z,21.92
2017-05-11T05:00:56.249Z,21.99
2017-05-11T05:01:56.187Z,21.95
2017-05-11T05:02:56.167Z,21.92
2017-05-11T05:03:56.056Z,21.95
2017-05-11T05:04:55.993Z,22
2017-05-11T05:05:56.233Z,21.89
2017-05-11T05:06:55.865Z,21.96
2017-05-11T05:07:55.804Z,21.89
2017-05-11T05:08:55.739Z,21.92
2017-05-11T05:09:55.680Z,21.96
2017-05-11T05:10:55.616Z,21.93
2017-05-11T05:11:55.551Z,21.91
2017-05-11T05:12:55.492Z,21.92
2017-05-11T05:13:55.422Z,21.92
2017-05-11T05:14:55.395Z,21.88
2017-05-11T05:15:55.294Z,21.89
2017-05-11T05:16:54.929Z,21.92
2017-05-11T05:17:54.868Z,21.89
2017-05-11T05:18:55.104Z,21.92
2017-05-11T05:19:54.741Z,22
2017-05-11T05:20:54.979Z,21.89
2017-05-11T05:21:54.920Z,21.93
2017-05-11T05:22:54.855Z,21.88
2017-05-11T05:23:54.487Z,21.88
2017-05-11T05:24:54.739Z,21.89
2017-05-11T05:25:54.660Z,21.91
2017-05-11T05:26:54.599Z,21.8
2017-05-11T05:27:54.541Z,21.8
2017-05-11T05:28:54.471Z,21.8
2017-05-11T05:29:54.407Z,21.85
2017-05-11T05:30:54.345Z,21.83
2017-05-11T05:31:54.281Z,21.82
2017-05-11T05:32:54.221Z,21.75
2017-05-11T05:33:54.150Z,21.92
2017-05-11T05:34:54.087Z,21.76
2017-05-11T05:35:54.027Z,21.93
2017-05-11T05:36:53.961Z,21.8
2017-05-11T05:37:53.905Z,21.95
2017-05-11T05:38:53.834Z,21.91
2017-05-11T05:39:53.772Z,21.83
2017-05-11T05:40:53.710Z,21.8
2017-05-11T05:41:53.653Z,21.88
2017-05-11T05:42:53.623Z,21.91
2017-05-11T05:43:53.516Z,21.89
2017-05-11T05:44:53.453Z,21.85
2017-05-11T05:45:53.390Z,21.85
2017-05-11T05:46:53.326Z,21.85
2017-05-11T05:47:53.265Z,21.8
2017-05-11T05:48:53.203Z,21.85
2017-05-11T05:49:53.138Z,21.95
2017-05-11T05:50:53.070Z,21.85
2017-05-11T05:51:53.008Z,21.8
2017-05-11T05:52:52.945Z,21.76
2017-05-11T05:53:52.882Z,21.8
2017-05-11T05:54:52.820Z,21.8
2017-05-11T05:55:52.753Z,21.83
2017-05-11T05:56:52.689Z,21.8
2017-05-11T05:57:52.628Z,21.76
2017-05-11T05:58:52.580Z,21.75
2017-05-11T05:59:52.501Z,21.77
2017-05-11T06:00:52.441Z,21.77
2017-05-11T06:01:52.373Z,21.82
2017-05-11T06:02:52.310Z,21.76
2017-05-11T06:03:52.292Z,21.77
2017-05-11T06:04:52.180Z,21.85
2017-05-11T06:05:52.117Z,21.77
2017-05-11T06:06:52.056Z,21.85
2017-05-11T06:07:51.992Z,21.77
2017-05-11T06:08:51.935Z,21.77
2017-05-11T06:09:51.862Z,21.77
2017-05-11T06:10:51.803Z,21.83
2017-05-11T06:11:51.742Z,21.76
2017-05-11T06:12:51.680Z,21.8
2017-05-11T06:13:51.610Z,21.73
2017-05-11T06:14:51.546Z,21.82
2017-05-11T06:15:51.221Z,21.82
2017-05-11T06:16:51.424Z,21.82
2017-05-11T06:17:51.374Z,21.72
2017-05-11T06:18:51.305Z,21.75
2017-05-11T06:19:51.227Z,21.79
2017-05-11T06:20:50.864Z,21.79
2017-05-11T06:21:51.101Z,21.79
2017-05-11T06:22:50.746Z,21.73
2017-05-11T06:23:51.058Z,21.76
2017-05-11T06:24:50.913Z,21.75
2017-05-11T06:25:50.976Z,21.79
2017-05-11T06:26:50.790Z,21.8
2017-05-11T06:27:50.723Z,21.88
2017-05-11T06:28:50.658Z,21.79
2017-05-11T06:29:50.592Z,21.72
2017-05-11T06:30:50.226Z,21.76
2017-05-11T06:31:50.466Z,21.79
2017-05-11T06:32:50.402Z,21.76
2017-05-11T06:33:50.037Z,21.8
2017-05-11T06:34:50.274Z,21.75
2017-05-11T06:35:50.212Z,21.73
2017-05-11T06:36:50.145Z,21.79
2017-05-11T06:37:50.088Z,21.73
2017-05-11T06:38:50.019Z,21.79
2017-05-11T06:39:49.658Z,21.83
2017-05-11T06:40:49.893Z,21.79
2017-05-11T06:41:49.834Z,21.82
2017-05-11T06:42:49.774Z,21.82
2017-05-11T06:43:49.702Z,21.83
2017-05-11T06:44:49.641Z,21.77
2017-05-11T06:45:49.573Z,21.79
2017-05-11T06:46:49.513Z,21.77
2017-05-11T06:47:49.449Z,21.76
2017-05-11T06:48:49.387Z,21.79
2017-05-11T06:49:49.319Z,21.76
2017-05-11T06:50:49.052Z,21.77
2017-05-11T06:51:49.193Z,21.75
2017-05-11T06:52:49.138Z,21.77
2017-05-11T06:53:49.066Z,21.83
2017-05-11T06:54:49.005Z,21.73
2017-05-11T06:55:49.038Z,21.79
2017-05-11T06:56:48.878Z,21.79
2017-05-11T06:57:48.814Z,21.75
2017-05-11T06:58:48.451Z,21.75
2017-05-11T06:59:48.690Z,21.73
2017-05-11T07:00:48.824Z,21.76
2017-05-11T07:01:48.556Z,21.75
2017-05-11T07:02:48.493Z,21.8
2017-05-11T07:03:48.431Z,21.76
2017-05-11T07:04:48.383Z,21.88
2017-05-11T07:05:48.301Z,21.88
2017-05-11T07:06:48.239Z,21.91
2017-05-11T07:07:48.177Z,21.91
2017-05-11T07:08:48.123Z,21.95
2017-05-11T07:09:48.048Z,21.96
2017-05-11T07:10:48.188Z,21.95
2017-05-11T07:11:47.738Z,22
2017-05-11T07:12:47.856Z,22.06
2017-05-11T07:13:47.796Z,22.08
2017-05-11T07:14:47.734Z,22.02
2017-05-11T07:15:47.669Z,22.1
2017-05-11T07:16:47.605Z,22.08
2017-05-11T07:17:47.541Z,22.1
2017-05-11T07:18:47.479Z,22.06
2017-05-11T07:19:47.410Z,22.11
2017-05-11T07:20:47.347Z,22.08
2017-05-11T07:21:47.296Z,22.11
2017-05-11T07:22:47.227Z,22.13
2017-05-11T07:23:47.163Z,22.18
2017-05-11T07:24:47.094Z,22.2
2017-05-11T07:25:47.031Z,22.15
2017-05-11T07:26:46.995Z,22.14
2017-05-11T07:27:46.908Z,22.2
2017-05-11T07:28:46.845Z,22.18
2017-05-11T07:29:46.780Z,22.2
2017-05-11T07:30:46.716Z,22.25
2017-05-11T07:31:46.652Z,22.26
2017-05-11T07:32:46.593Z,22.32
2017-05-11T07:33:46.314Z,22.3
2017-05-11T07:34:46.466Z,22.26
2017-05-11T07:35:46.099Z,22.32
2017-05-11T07:36:46.035Z,22.3
2017-05-11T07:37:46.279Z,22.26
2017-05-11T07:38:45.906Z,22.22
2017-05-11T07:39:46.153Z,22.33
2017-05-11T07:40:46.086Z,22.29
2017-05-11T07:41:46.020Z,22.25
2017-05-11T07:42:45.661Z,22.29
2017-05-11T07:43:45.897Z,22.23
2017-05-11T07:44:45.832Z,22.22
2017-05-11T07:45:45.768Z,22.26
2017-05-11T07:46:45.705Z,22.32
2017-05-11T07:47:45.646Z,22.22
2017-05-11T07:48:45.578Z,22.25
2017-05-11T07:49:45.514Z,22.33
2017-05-11T07:50:45.449Z,22.35
2017-05-11T07:51:45.391Z,22.22
2017-05-11T07:52:45.331Z,22.36
2017-05-11T07:53:45.263Z,22.41
2017-05-11T07:54:45.199Z,22.32
2017-05-11T07:55:45.132Z,22.33
2017-05-11T07:56:45.073Z,22.33
2017-05-11T07:57:45.011Z,22.36
2017-05-11T07:58:44.945Z,22.36
2017-05-11T07:59:44.584Z,22.41
2017-05-11T08:00:44.825Z,22.41
2017-05-11T08:01:44.640Z,22.35
2017-05-11T08:02:44.787Z,22.44
2017-05-11T08:03:44.697Z,22.43
2017-05-11T08:04:44.775Z,22.39
2017-05-11T08:05:44.772Z,22.36
2017-05-11T08:06:44.694Z,22.43
2017-05-11T08:07:44.351Z,22.41
2017-05-11T08:08:44.521Z,22.48
2017-05-11T08:09:44.591Z,22.48
2017-05-11T08:10:44.380Z,22.5
2017-05-11T08:11:44.418Z,22.54
2017-05-11T08:12:44.064Z,22.5
2017-05-11T08:13:43.998Z,22.53
2017-05-11T08:14:43.940Z,22.57
2017-05-11T08:15:43.875Z,22.54
2017-05-11T08:16:43.814Z,22.57
2017-05-11T08:17:43.754Z,22.57
2017-05-11T08:18:43.683Z,22.55
2017-05-11T08:19:43.621Z,22.62
2017-05-11T08:20:43.559Z,22.65
2017-05-11T08:21:43.495Z,22.53
2017-05-11T08:22:43.434Z,22.65
2017-05-11T08:23:43.371Z,22.55
2017-05-11T08:24:43.307Z,22.63
2017-05-11T08:25:43.243Z,22.5
2017-05-11T08:26:43.181Z,22.66
2017-05-11T08:27:43.120Z,22.57
2017-05-11T08:28:43.051Z,22.6
2017-05-11T08:29:43.008Z,22.62
2017-05-11T08:30:42.931Z,22.65
2017-05-11T08:31:42.870Z,22.6
2017-05-11T08:32:42.799Z,22.65
2017-05-11T08:33:42.751Z,22.69
2017-05-11T08:34:42.679Z,22.78
2017-05-11T08:35:42.618Z,22.66
2017-05-11T08:36:42.607Z,22.69
2017-05-11T08:37:42.493Z,22.75
2017-05-11T08:38:42.437Z,22.73
2017-05-11T08:39:42.408Z,22.78
2017-05-11T08:40:42.305Z,22.76
2017-05-11T08:41:42.245Z,22.78
2017-05-11T08:42:42.175Z,22.78
2017-05-11T08:43:41.812Z,22.84
2017-05-11T08:44:41.754Z,22.72
2017-05-11T08:45:42.248Z,22.84
2017-05-11T08:46:41.935Z,22.8
2017-05-11T08:47:41.864Z,22.78
2017-05-11T08:48:41.657Z,22.8
2017-05-11T08:49:41.434Z,22.81
2017-05-11T08:50:41.674Z,22.83
2017-05-11T08:51:41.790Z,22.8
2017-05-11T08:52:41.550Z,22.85
2017-05-11T08:53:41.488Z,22.81
2017-05-11T08:54:41.725Z,22.81
2017-05-11T08:55:41.514Z,22.9
2017-05-11T08:56:41.302Z,22.81
2017-05-11T08:57:41.236Z,22.94
2017-05-11T08:58:41.173Z,22.93
2017-05-11T08:59:41.370Z,22.91
2017-05-11T09:00:41.256Z,22.91
2017-05-11T09:01:40.992Z,22.96
2017-05-11T09:02:40.929Z,22.91
2017-05-11T09:03:40.874Z,22.91
2017-05-11T09:04:40.900Z,22.94
2017-05-11T09:05:40.546Z,22.94
2017-05-11T09:06:40.669Z,22.98
2017-05-11T09:07:40.615Z,22.99
2017-05-11T09:08:40.544Z,23
2017-05-11T09:09:40.486Z,23
2017-05-11T09:10:40.465Z,23
2017-05-11T09:11:40.360Z,23.02
2017-05-11T09:12:40.298Z,23.02
2017-05-11T09:13:40.239Z,23.02
2017-05-11T09:14:40.174Z,23
2017-05-11T09:15:40.114Z,23.06
2017-05-11T09:16:40.050Z,23.09
2017-05-11T09:17:39.696Z,23.08
2017-05-11T09:18:39.925Z,23.12
2017-05-11T09:19:39.872Z,23.09
2017-05-11T09:20:39.951Z,23.13
2017-05-11T09:21:39.736Z,23.09
2017-05-11T09:22:39.673Z,23.1
2017-05-11T09:23:39.614Z,23.17
2017-05-11T09:24:39.553Z,23.06
2017-05-11T09:25:39.787Z,23.1
2017-05-11T09:26:39.424Z,23.15
2017-05-11T09:27:39.356Z,23.12
2017-05-11T09:28:39.299Z,23.15
2017-05-11T09:29:39.238Z,23.09
2017-05-11T09:30:39.184Z,23.15
2017-05-11T09:31:39.125Z,23.12
2017-05-11T09:32:39.051Z,23.1
2017-05-11T09:33:38.989Z,23.13
2017-05-11T09:34:38.626Z,23.12
2017-05-11T09:35:38.865Z,23.17
2017-05-11T09:36:38.815Z,23.18
2017-05-11T09:37:38.740Z,23.21
2017-05-11T09:38:38.676Z,23.17
2017-05-11T09:39:38.620Z,23.21
2017-05-11T09:40:38.562Z,23.23
2017-05-11T09:41:38.497Z,23.2
2017-05-11T09:42:38.438Z,23.15
2017-05-11T09:43:38.378Z,23.25
2017-05-11T09:44:38.310Z,23.18
2017-05-11T09:45:38.244Z,23.23
2017-05-11T09:46:38.222Z,23.28
2017-05-11T09:47:38.121Z,23.23
2017-05-11T09:48:38.050Z,23.25
2017-05-11T09:49:38.008Z,23.28
2017-05-11T09:50:37.937Z,23.32
2017-05-11T09:51:37.872Z,23.28
2017-05-11T09:52:37.808Z,23.27
2017-05-11T09:53:37.439Z,23.39
2017-05-11T09:54:37.679Z,23.36
2017-05-11T09:55:37.619Z,23.28
2017-05-11T09:56:37.563Z,23.34
2017-05-11T09:57:37.492Z,23.37
2017-05-11T09:58:37.431Z,23.41
2017-05-11T09:59:37.373Z,23.46
2017-05-11T10:00:37.308Z,23.46
2017-05-11T10:01:37.244Z,23.41
2017-05-11T10:02:37.193Z,23.4
2017-05-11T10:03:37.125Z,23.43
2017-05-11T10:04:37.059Z,23.28
2017-05-11T10:05:36.996Z,23.36
2017-05-11T10:06:36.630Z,23.37
2017-05-11T10:07:36.877Z,23.44
2017-05-11T10:08:36.506Z,23.41
2017-05-11T10:09:36.748Z,23.39
2017-05-11T10:10:36.684Z,23.44
2017-05-11T10:11:36.628Z,23.44
2017-05-11T10:12:36.562Z,23.55
2017-05-11T10:13:36.499Z,23.47
2017-05-11T10:14:36.435Z,23.47
2017-05-11T10:15:36.521Z,23.58
2017-05-11T10:16:36.308Z,23.48
2017-05-11T10:17:35.944Z,23.5
2017-05-11T10:18:36.180Z,23.5
2017-05-11T10:19:36.122Z,23.48
2017-05-11T10:20:36.210Z,23.5
2017-05-11T10:21:35.999Z,23.54
2017-05-11T10:22:35.952Z,23.61
2017-05-11T10:23:35.874Z,23.61
2017-05-11T10:24:35.810Z,23.63
2017-05-11T10:25:35.752Z,23.66
2017-05-11T10:26:35.685Z,23.59
2017-05-11T10:27:35.627Z,23.61
2017-05-11T10:28:35.562Z,23.65
2017-05-11T10:29:35.539Z,23.62
2017-05-11T10:30:35.436Z,23.59
2017-05-11T10:31:35.378Z,23.62
2017-05-11T10:32:35.315Z,23.62
2017-05-11T10:33:35.257Z,23.62
2017-05-11T10:34:35.195Z,23.58
2017-05-11T10:35:35.134Z,23.62
2017-05-11T10:36:35.069Z,23.62
2017-05-11T10:37:35.001Z,23.63
2017-05-11T10:38:34.940Z,23.66
2017-05-11T10:39:34.880Z,23.74
2017-05-11T10:40:34.810Z,23.68
2017-05-11T10:41:34.451Z,23.68
2017-05-11T10:42:34.691Z,23.73
2017-05-11T10:43:34.626Z,23.71
2017-05-11T10:44:34.566Z,23.71
2017-05-11T10:45:34.508Z,23.81
2017-05-11T10:46:34.439Z,23.88
2017-05-11T10:47:34.378Z,23.8
2017-05-11T10:48:34.323Z,23.81
2017-05-11T10:49:33.972Z,23.81
2017-05-11T10:50:34.216Z,23.8
2017-05-11T10:51:33.837Z,23.84
2017-05-11T10:52:34.081Z,23.81
2017-05-11T10:53:34.007Z,23.86
2017-05-11T10:54:33.943Z,23.8
2017-05-11T10:55:33.884Z,23.87
2017-05-11T10:56:33.854Z,23.83
2017-05-11T10:57:33.456Z,23.84
2017-05-11T10:58:33.700Z,23.88
2017-05-11T10:59:33.635Z,23.78
2017-05-11T11:00:33.617Z,23.77
2017-05-11T11:01:33.206Z,23.83
2017-05-11T11:02:33.456Z,23.81
2017-05-11T11:03:32.794Z,23.8
2017-05-11T11:04:33.328Z,23.8
2017-05-11T11:05:33.314Z,23.8
2017-05-11T11:06:33.202Z,23.81
2017-05-11T11:07:33.164Z,23.8
2017-05-11T11:08:32.779Z,23.83
2017-05-11T11:09:33.022Z,23.8
2017-05-11T11:10:32.994Z,23.91
2017-05-11T11:11:32.899Z,23.84
2017-05-11T11:12:32.833Z,23.81
2017-05-11T11:13:32.517Z,23.95
2017-05-11T11:14:32.719Z,23.81
2017-05-11T11:15:32.684Z,23.83
2017-05-11T11:16:32.301Z,23.93
2017-05-11T11:17:32.682Z,23.83
2017-05-11T11:18:32.465Z,23.87
2017-05-11T11:19:32.404Z,23.87
2017-05-11T11:20:32.393Z,23.88
2017-05-11T11:21:32.292Z,23.88
2017-05-11T11:22:32.224Z,23.93
2017-05-11T11:23:32.170Z,23.86
2017-05-11T11:24:32.097Z,23.86
2017-05-11T11:25:31.832Z,23.88
2017-05-11T11:26:32.020Z,23.96
2017-05-11T11:27:31.911Z,23.95
2017-05-11T11:28:31.847Z,23.98
2017-05-11T11:29:31.795Z,24.03
2017-05-11T11:30:31.743Z,24.01
2017-05-11T11:31:31.661Z,23.98
2017-05-11T11:32:31.604Z,24.02
2017-05-11T11:33:31.237Z,24.03
2017-05-11T11:34:31.480Z,23.96
2017-05-11T11:35:31.419Z,23.99
2017-05-11T11:36:31.367Z,24.01
2017-05-11T11:37:31.299Z,23.96
2017-05-11T11:38:31.239Z,24.01
2017-05-11T11:39:31.174Z,24.03
2017-05-11T11:40:31.109Z,24.17
2017-05-11T11:41:31.051Z,24.11
2017-05-11T11:42:31.001Z,24.08
2017-05-11T11:43:30.951Z,24.14
2017-05-11T11:44:30.872Z,24.1
2017-05-11T11:45:30.505Z,24.16
2017-05-11T11:46:30.748Z,24.17
2017-05-11T11:47:30.382Z,24.13
2017-05-11T11:48:30.328Z,24.14
2017-05-11T11:49:30.564Z,24.13
2017-05-11T11:50:30.602Z,24.14
2017-05-11T11:51:30.151Z,24.13
2017-05-11T11:52:30.382Z,24.23
2017-05-11T11:53:30.323Z,24.16
2017-05-11T11:54:30.263Z,24.23
2017-05-11T11:55:30.462Z,24.24
2017-05-11T11:56:30.139Z,24.23
2017-05-11T11:57:30.083Z,24.3
2017-05-11T11:58:30.019Z,24.24
2017-05-11T11:59:29.952Z,24.32
2017-05-11T12:00:29.888Z,24.32
2017-05-11T12:01:29.830Z,24.29
2017-05-11T12:02:29.771Z,24.32
2017-05-11T12:03:29.729Z,24.28
2017-05-11T12:04:29.648Z,24.26
2017-05-11T12:05:29.586Z,24.3
2017-05-11T12:06:29.529Z,24.38
2017-05-11T12:07:29.467Z,24.26
2017-05-11T12:08:29.403Z,24.3
2017-05-11T12:09:29.343Z,24.28
2017-05-11T12:10:28.981Z,24.39
2017-05-11T12:11:29.219Z,24.29
2017-05-11T12:12:29.160Z,24.38
2017-05-11T12:13:29.106Z,24.36
2017-05-11T12:14:29.035Z,24.47
2017-05-11T12:15:28.976Z,24.36
2017-05-11T12:16:28.617Z,24.39
2017-05-11T12:17:28.857Z,24.51
2017-05-11T12:18:28.795Z,24.53
2017-05-11T12:19:28.438Z,24.39
2017-05-11T12:20:28.673Z,24.39
2017-05-11T12:21:28.308Z,24.47
2017-05-11T12:22:28.572Z,24.39
2017-05-11T12:23:28.489Z,24.5
2017-05-11T12:24:28.128Z,24.42
2017-05-11T12:25:28.374Z,24.38
2017-05-11T12:26:28.007Z,24.5
2017-05-11T12:27:27.962Z,24.43
2017-05-11T12:28:28.187Z,24.45
2017-05-11T12:29:28.123Z,24.4
2017-05-11T12:30:28.065Z,24.43
2017-05-11T12:31:27.702Z,24.54
2017-05-11T12:32:27.641Z,24.48
2017-05-11T12:33:27.589Z,24.47
2017-05-11T12:34:27.518Z,24.51
2017-05-11T12:35:27.464Z,24.48
2017-05-11T12:36:27.722Z,24.45
2017-05-11T12:37:27.642Z,24.5
2017-05-11T12:38:27.578Z,24.5
2017-05-11T12:39:27.224Z,24.5
2017-05-11T12:40:27.466Z,24.54
2017-05-11T12:41:27.401Z,24.5
2017-05-11T12:42:27.344Z,24.55
2017-05-11T12:43:27.279Z,24.5
2017-05-11T12:44:27.214Z,24.6
2017-05-11T12:45:27.155Z,24.5
2017-05-11T12:46:26.792Z,24.6
2017-05-11T12:47:27.038Z,24.5
2017-05-11T12:48:26.972Z,24.57
2017-05-11T12:49:26.958Z,24.48
2017-05-11T12:50:26.561Z,24.5
2017-05-11T12:51:26.797Z,24.5
2017-05-11T12:52:26.732Z,24.5
2017-05-11T12:53:26.683Z,24.53
2017-05-11T12:54:26.307Z,24.48
2017-05-11T12:55:26.543Z,24.43
2017-05-11T12:56:26.181Z,24.4